sensor_id;sensor_type;location;lat;lon;timestamp;pressure;altitude;pressure_sealevel;temperature;humidity
40570;BME280;26270;34.428;-119.710;2022-07-29T00:00:08;100745.63;;;29.81;36.68
40570;BME280;26270;34.428;-119.710;2022-07-29T00:02:36;100747.37;;;29.43;36.82
40570;BME280;26270;34.428;-119.710;2022-07-29T00:05:07;100748.56;;;29.49;37.00
40570;BME280;26270;34.428;-119.710;2022-07-29T00:07:36;100750.19;;;29.41;37.41
40570;BME280;26270;34.428;-119.710;2022-07-29T00:10:05;100752.18;;;29.26;37.60
40570;BME280;26270;34.428;-119.710;2022-07-29T00:12:34;100750.32;;;29.18;37.84
40570;BME280;26270;34.428;-119.710;2022-07-29T00:15:02;100746.45;;;29.11;38.11
40570;BME280;26270;34.428;-119.710;2022-07-29T00:17:31;100743.69;;;28.98;38.02
40570;BME280;26270;34.428;-119.710;2022-07-29T00:19:59;100747.58;;;28.94;37.93
40570;BME280;26270;34.428;-119.710;2022-07-29T00:22:27;100749.15;;;28.75;38.45
40570;BME280;26270;34.428;-119.710;2022-07-29T00:24:55;100745.83;;;28.71;38.23
40570;BME280;26270;34.428;-119.710;2022-07-29T00:27:23;100750.81;;;28.47;38.26
40570;BME280;26270;34.428;-119.710;2022-07-29T00:29:51;100745.75;;;28.58;38.08
40570;BME280;26270;34.428;-119.710;2022-07-29T00:32:19;100748.93;;;28.42;38.23
40570;BME280;26270;34.428;-119.710;2022-07-29T00:34:47;100745.96;;;28.52;38.23
40570;BME280;26270;34.428;-119.710;2022-07-29T00:37:15;100740.17;;;28.32;38.60
40570;BME280;26270;34.428;-119.710;2022-07-29T00:39:44;100736.15;;;28.13;38.63
40570;BME280;26270;34.428;-119.710;2022-07-29T00:42:12;100740.46;;;28.11;38.90
40570;BME280;26270;34.428;-119.710;2022-07-29T00:44:41;100738.08;;;28.09;39.08
40570;BME280;26270;34.428;-119.710;2022-07-29T00:47:11;100739.50;;;27.96;38.79
40570;BME280;26270;34.428;-119.710;2022-07-29T00:49:40;100738.57;;;27.96;38.91
40570;BME280;26270;34.428;-119.710;2022-07-29T00:52:10;100735.17;;;28.04;38.82
40570;BME280;26270;34.428;-119.710;2022-07-29T00:54:39;100739.30;;;27.94;38.93
40570;BME280;26270;34.428;-119.710;2022-07-29T00:57:08;100738.01;;;27.61;39.18
40570;BME280;26270;34.428;-119.710;2022-07-29T00:59:36;100738.89;;;27.60;39.22
40570;BME280;26270;34.428;-119.710;2022-07-29T01:02:05;100741.52;;;27.60;39.47
40570;BME280;26270;34.428;-119.710;2022-07-29T01:04:33;100739.06;;;27.73;39.49
40570;BME280;26270;34.428;-119.710;2022-07-29T01:07:02;100733.82;;;27.67;39.60
40570;BME280;26270;34.428;-119.710;2022-07-29T01:09:32;100731.18;;;27.36;39.76
40570;BME280;26270;34.428;-119.710;2022-07-29T01:12:03;100731.32;;;27.15;39.81
40570;BME280;26270;34.428;-119.710;2022-07-29T01:14:32;100729.57;;;27.42;40.14
40570;BME280;26270;34.428;-119.710;2022-07-29T01:17:08;100727.61;;;27.29;40.13
40570;BME280;26270;34.428;-119.710;2022-07-29T01:19:48;100724.02;;;27.29;40.17
40570;BME280;26270;34.428;-119.710;2022-07-29T01:22:31;100716.14;;;27.30;40.25
40570;BME280;26270;34.428;-119.710;2022-07-29T01:25:17;100711.30;;;27.45;40.49
40570;BME280;26270;34.428;-119.710;2022-07-29T01:28:04;100715.68;;;27.44;40.55
40570;BME280;26270;34.428;-119.710;2022-07-29T01:30:38;100717.48;;;27.16;40.95
40570;BME280;26270;34.428;-119.710;2022-07-29T01:33:10;100717.19;;;27.26;40.29
40570;BME280;26270;34.428;-119.710;2022-07-29T01:35:40;100714.52;;;27.18;40.94
40570;BME280;26270;34.428;-119.710;2022-07-29T01:38:12;100716.37;;;27.06;41.19
40570;BME280;26270;34.428;-119.710;2022-07-29T01:40:45;100716.24;;;27.11;41.28
40570;BME280;26270;34.428;-119.710;2022-07-29T01:43:17;100720.57;;;27.03;41.36
40570;BME280;26270;34.428;-119.710;2022-07-29T01:45:52;100721.53;;;26.96;41.73
40570;BME280;26270;34.428;-119.710;2022-07-29T01:48:24;100723.22;;;26.83;41.81
40570;BME280;26270;34.428;-119.710;2022-07-29T01:51:03;100725.39;;;26.84;41.77
40570;BME280;26270;34.428;-119.710;2022-07-29T01:53:36;100727.70;;;26.87;41.90
40570;BME280;26270;34.428;-119.710;2022-07-29T01:56:07;100730.81;;;26.78;42.05
40570;BME280;26270;34.428;-119.710;2022-07-29T01:58:39;100731.82;;;26.65;42.25
40570;BME280;26270;34.428;-119.710;2022-07-29T02:01:09;100728.33;;;26.49;42.52
40570;BME280;26270;34.428;-119.710;2022-07-29T02:03:39;100729.46;;;26.22;42.86
40570;BME280;26270;34.428;-119.710;2022-07-29T02:06:12;100736.75;;;26.42;42.86
40570;BME280;26270;34.428;-119.710;2022-07-29T02:08:43;100745.08;;;25.93;43.03
40570;BME280;26270;34.428;-119.710;2022-07-29T02:11:12;100742.68;;;25.98;43.16
40570;BME280;26270;34.428;-119.710;2022-07-29T02:13:41;100739.00;;;26.04;43.03
40570;BME280;26270;34.428;-119.710;2022-07-29T02:16:12;100746.97;;;25.87;43.15
40570;BME280;26270;34.428;-119.710;2022-07-29T02:18:44;100749.41;;;25.77;43.15
40570;BME280;26270;34.428;-119.710;2022-07-29T02:21:16;100749.45;;;25.84;43.07
40570;BME280;26270;34.428;-119.710;2022-07-29T02:23:48;100753.32;;;25.68;43.01
40570;BME280;26270;34.428;-119.710;2022-07-29T02:26:18;100753.71;;;25.49;43.07
40570;BME280;26270;34.428;-119.710;2022-07-29T02:28:47;100755.09;;;25.62;42.92
40570;BME280;26270;34.428;-119.710;2022-07-29T02:31:20;100759.69;;;25.46;43.25
40570;BME280;26270;34.428;-119.710;2022-07-29T02:33:50;100768.46;;;25.39;42.94
40570;BME280;26270;34.428;-119.710;2022-07-29T02:36:21;100772.53;;;25.41;43.03
40570;BME280;26270;34.428;-119.710;2022-07-29T02:38:50;100772.19;;;25.29;43.46
40570;BME280;26270;34.428;-119.710;2022-07-29T02:41:24;100777.91;;;25.47;43.44
40570;BME280;26270;34.428;-119.710;2022-07-29T02:43:58;100780.09;;;25.40;43.61
40570;BME280;26270;34.428;-119.710;2022-07-29T02:46:32;100782.71;;;25.48;43.75
40570;BME280;26270;34.428;-119.710;2022-07-29T02:49:09;100777.93;;;25.14;43.99
40570;BME280;26270;34.428;-119.710;2022-07-29T02:51:43;100779.21;;;25.19;43.91
40570;BME280;26270;34.428;-119.710;2022-07-29T02:54:22;100775.41;;;25.22;44.02
40570;BME280;26270;34.428;-119.710;2022-07-29T02:56:52;100779.71;;;25.12;44.27
40570;BME280;26270;34.428;-119.710;2022-07-29T02:59:24;100782.68;;;25.01;44.69
40570;BME280;26270;34.428;-119.710;2022-07-29T03:01:55;100781.08;;;25.19;44.36
40570;BME280;26270;34.428;-119.710;2022-07-29T03:04:26;100780.59;;;25.15;44.38
40570;BME280;26270;34.428;-119.710;2022-07-29T03:06:58;100781.03;;;25.01;44.91
40570;BME280;26270;34.428;-119.710;2022-07-29T03:09:27;100783.71;;;24.88;45.04
40570;BME280;26270;34.428;-119.710;2022-07-29T03:11:57;100779.67;;;24.95;44.96
40570;BME280;26270;34.428;-119.710;2022-07-29T03:14:26;100778.52;;;24.97;44.50
40570;BME280;26270;34.428;-119.710;2022-07-29T03:16:54;100777.58;;;25.03;44.98
40570;BME280;26270;34.428;-119.710;2022-07-29T03:19:23;100782.58;;;24.95;46.86
40570;BME280;26270;34.428;-119.710;2022-07-29T03:21:52;100785.41;;;24.71;49.12
40570;BME280;26270;34.428;-119.710;2022-07-29T03:24:32;100788.40;;;24.79;49.99
40570;BME280;26270;34.428;-119.710;2022-07-29T03:27:00;100788.72;;;24.83;50.72
40570;BME280;26270;34.428;-119.710;2022-07-29T03:29:30;100791.49;;;24.52;51.37
40570;BME280;26270;34.428;-119.710;2022-07-29T03:31:58;100788.89;;;24.39;52.11
40570;BME280;26270;34.428;-119.710;2022-07-29T03:34:26;100790.59;;;24.61;51.99
40570;BME280;26270;34.428;-119.710;2022-07-29T03:36:55;100793.76;;;24.38;52.69
40570;BME280;26270;34.428;-119.710;2022-07-29T03:39:27;100793.20;;;24.39;52.93
40570;BME280;26270;34.428;-119.710;2022-07-29T03:41:59;100797.95;;;24.38;52.88
40570;BME280;26270;34.428;-119.710;2022-07-29T03:44:29;100799.69;;;24.27;53.20
40570;BME280;26270;34.428;-119.710;2022-07-29T03:47:00;100801.55;;;24.14;53.56
40570;BME280;26270;34.428;-119.710;2022-07-29T03:49:30;100803.47;;;24.14;53.60
40570;BME280;26270;34.428;-119.710;2022-07-29T03:51:59;100810.93;;;24.15;53.83
40570;BME280;26270;34.428;-119.710;2022-07-29T03:54:28;100819.79;;;24.09;54.07
40570;BME280;26270;34.428;-119.710;2022-07-29T03:56:59;100823.64;;;24.02;54.31
40570;BME280;26270;34.428;-119.710;2022-07-29T03:59:27;100830.74;;;23.83;54.38
40570;BME280;26270;34.428;-119.710;2022-07-29T04:03:20;100835.32;;;23.79;54.89
40570;BME280;26270;34.428;-119.710;2022-07-29T04:05:58;100835.45;;;23.59;55.17
40570;BME280;26270;34.428;-119.710;2022-07-29T04:08:26;100841.30;;;23.59;55.59
40570;BME280;26270;34.428;-119.710;2022-07-29T04:10:55;100845.10;;;23.64;55.69
40570;BME280;26270;34.428;-119.710;2022-07-29T04:13:23;100846.65;;;23.36;55.97
40570;BME280;26270;34.428;-119.710;2022-07-29T04:15:51;100843.92;;;23.50;55.80
40570;BME280;26270;34.428;-119.710;2022-07-29T04:18:19;100844.54;;;23.62;55.96
40570;BME280;26270;34.428;-119.710;2022-07-29T04:20:47;100848.85;;;23.34;56.09
40570;BME280;26270;34.428;-119.710;2022-07-29T04:23:16;100846.85;;;23.40;56.40
40570;BME280;26270;34.428;-119.710;2022-07-29T04:25:45;100849.02;;;23.28;56.65
40570;BME280;26270;34.428;-119.710;2022-07-29T04:28:13;100848.12;;;23.20;56.65
40570;BME280;26270;34.428;-119.710;2022-07-29T04:30:41;100850.01;;;23.16;57.41
40570;BME280;26270;34.428;-119.710;2022-07-29T04:33:09;100845.70;;;23.06;57.27
40570;BME280;26270;34.428;-119.710;2022-07-29T04:35:38;100850.45;;;22.94;57.65
40570;BME280;26270;34.428;-119.710;2022-07-29T04:38:06;100854.91;;;22.92;57.51
40570;BME280;26270;34.428;-119.710;2022-07-29T04:40:35;100854.34;;;22.90;57.70
40570;BME280;26270;34.428;-119.710;2022-07-29T04:43:03;100853.86;;;23.04;57.60
40570;BME280;26270;34.428;-119.710;2022-07-29T04:45:31;100855.04;;;22.90;57.69
40570;BME280;26270;34.428;-119.710;2022-07-29T04:47:59;100858.31;;;22.92;57.75
40570;BME280;26270;34.428;-119.710;2022-07-29T04:50:28;100860.03;;;22.83;57.90
40570;BME280;26270;34.428;-119.710;2022-07-29T04:52:56;100862.10;;;22.86;58.05
40570;BME280;26270;34.428;-119.710;2022-07-29T04:55:24;100859.48;;;23.17;57.39
40570;BME280;26270;34.428;-119.710;2022-07-29T04:57:52;100861.93;;;22.95;57.67
40570;BME280;26270;34.428;-119.710;2022-07-29T05:00:21;100867.21;;;22.82;58.16
40570;BME280;26270;34.428;-119.710;2022-07-29T05:02:49;100866.21;;;22.61;58.82
40570;BME280;26270;34.428;-119.710;2022-07-29T05:05:17;100860.24;;;22.57;58.33
40570;BME280;26270;34.428;-119.710;2022-07-29T05:07:45;100865.06;;;22.74;58.28
40570;BME280;26270;34.428;-119.710;2022-07-29T05:10:13;100866.29;;;22.59;58.67
40570;BME280;26270;34.428;-119.710;2022-07-29T05:12:41;100864.81;;;22.74;58.57
40570;BME280;26270;34.428;-119.710;2022-07-29T05:15:10;100859.76;;;22.69;58.65
40570;BME280;26270;34.428;-119.710;2022-07-29T05:17:38;100860.88;;;22.50;59.02
40570;BME280;26270;34.428;-119.710;2022-07-29T05:20:07;100862.12;;;22.55;58.96
40570;BME280;26270;34.428;-119.710;2022-07-29T05:22:36;100862.87;;;22.68;58.78
40570;BME280;26270;34.428;-119.710;2022-07-29T05:25:05;100866.10;;;22.54;59.19
40570;BME280;26270;34.428;-119.710;2022-07-29T05:27:33;100861.97;;;22.62;59.08
40570;BME280;26270;34.428;-119.710;2022-07-29T05:30:02;100860.41;;;22.56;59.02
40570;BME280;26270;34.428;-119.710;2022-07-29T05:32:30;100858.14;;;22.40;59.38
40570;BME280;26270;34.428;-119.710;2022-07-29T05:34:59;100859.72;;;22.55;59.25
40570;BME280;26270;34.428;-119.710;2022-07-29T05:37:27;100861.56;;;22.59;59.12
40570;BME280;26270;34.428;-119.710;2022-07-29T05:39:55;100865.44;;;22.15;59.91
40570;BME280;26270;34.428;-119.710;2022-07-29T05:42:24;100870.21;;;22.23;59.65
40570;BME280;26270;34.428;-119.710;2022-07-29T05:44:53;100868.22;;;22.34;59.43
40570;BME280;26270;34.428;-119.710;2022-07-29T05:47:21;100866.91;;;22.32;59.34
40570;BME280;26270;34.428;-119.710;2022-07-29T05:49:49;100873.37;;;22.42;59.54
40570;BME280;26270;34.428;-119.710;2022-07-29T05:52:18;100878.18;;;22.29;59.54
40570;BME280;26270;34.428;-119.710;2022-07-29T05:54:46;100884.47;;;22.28;59.57
40570;BME280;26270;34.428;-119.710;2022-07-29T05:57:18;100888.40;;;22.20;59.93
40570;BME280;26270;34.428;-119.710;2022-07-29T05:59:47;100892.52;;;22.21;59.88
40570;BME280;26270;34.428;-119.710;2022-07-29T06:02:15;100899.10;;;22.30;59.98
40570;BME280;26270;34.428;-119.710;2022-07-29T06:04:44;100901.35;;;22.19;60.34
40570;BME280;26270;34.428;-119.710;2022-07-29T06:07:12;100898.89;;;22.08;60.28
40570;BME280;26270;34.428;-119.710;2022-07-29T06:09:41;100898.14;;;21.99;60.80
40570;BME280;26270;34.428;-119.710;2022-07-29T06:12:09;100894.77;;;22.10;60.32
40570;BME280;26270;34.428;-119.710;2022-07-29T06:14:37;100895.86;;;22.09;60.36
40570;BME280;26270;34.428;-119.710;2022-07-29T06:17:05;100895.49;;;21.97;60.55
40570;BME280;26270;34.428;-119.710;2022-07-29T06:19:34;100898.83;;;22.16;60.28
40570;BME280;26270;34.428;-119.710;2022-07-29T06:22:03;100899.94;;;22.14;60.36
40570;BME280;26270;34.428;-119.710;2022-07-29T06:24:30;100901.11;;;22.13;59.93
40570;BME280;26270;34.428;-119.710;2022-07-29T06:26:59;100902.13;;;22.01;60.98
40570;BME280;26270;34.428;-119.710;2022-07-29T06:29:27;100904.92;;;21.98;60.82
40570;BME280;26270;34.428;-119.710;2022-07-29T06:31:55;100908.86;;;21.83;61.46
40570;BME280;26270;34.428;-119.710;2022-07-29T06:34:23;100914.11;;;21.87;61.28
40570;BME280;26270;34.428;-119.710;2022-07-29T06:36:52;100911.61;;;21.96;60.89
40570;BME280;26270;34.428;-119.710;2022-07-29T06:39:20;100913.55;;;22.03;60.70
40570;BME280;26270;34.428;-119.710;2022-07-29T06:41:49;100912.71;;;22.00;60.94
40570;BME280;26270;34.428;-119.710;2022-07-29T06:44:18;100915.43;;;21.93;61.05
40570;BME280;26270;34.428;-119.710;2022-07-29T06:46:45;100916.31;;;21.89;60.98
40570;BME280;26270;34.428;-119.710;2022-07-29T06:49:13;100920.55;;;21.78;61.11
40570;BME280;26270;34.428;-119.710;2022-07-29T06:51:42;100925.76;;;21.82;61.14
40570;BME280;26270;34.428;-119.710;2022-07-29T06:54:10;100926.60;;;21.80;61.30
40570;BME280;26270;34.428;-119.710;2022-07-29T06:56:38;100921.78;;;21.83;61.33
40570;BME280;26270;34.428;-119.710;2022-07-29T06:59:08;100914.56;;;21.73;61.25
40570;BME280;26270;34.428;-119.710;2022-07-29T07:01:37;100906.22;;;21.64;61.64
40570;BME280;26270;34.428;-119.710;2022-07-29T07:04:06;100908.10;;;21.91;61.21
40570;BME280;26270;34.428;-119.710;2022-07-29T07:06:35;100904.25;;;21.74;61.54
40570;BME280;26270;34.428;-119.710;2022-07-29T07:09:04;100897.24;;;21.63;61.26
40570;BME280;26270;34.428;-119.710;2022-07-29T07:11:31;100899.21;;;21.49;61.93
40570;BME280;26270;34.428;-119.710;2022-07-29T07:14:00;100896.05;;;21.62;61.64
40570;BME280;26270;34.428;-119.710;2022-07-29T07:16:28;100898.48;;;21.59;61.70
40570;BME280;26270;34.428;-119.710;2022-07-29T07:18:57;100897.65;;;21.54;61.83
40570;BME280;26270;34.428;-119.710;2022-07-29T07:21:24;100898.37;;;21.59;62.07
40570;BME280;26270;34.428;-119.710;2022-07-29T07:23:53;100902.26;;;21.66;61.80
40570;BME280;26270;34.428;-119.710;2022-07-29T07:26:20;100902.69;;;21.52;61.79
40570;BME280;26270;34.428;-119.710;2022-07-29T07:28:49;100905.90;;;21.45;61.95
40570;BME280;26270;34.428;-119.710;2022-07-29T07:31:17;100905.53;;;21.46;61.85
40570;BME280;26270;34.428;-119.710;2022-07-29T07:33:46;100903.95;;;21.50;61.91
40570;BME280;26270;34.428;-119.710;2022-07-29T07:36:14;100901.72;;;21.54;61.92
40570;BME280;26270;34.428;-119.710;2022-07-29T07:38:42;100899.99;;;21.42;61.93
40570;BME280;26270;34.428;-119.710;2022-07-29T07:41:10;100897.66;;;21.58;61.75
40570;BME280;26270;34.428;-119.710;2022-07-29T07:43:38;100891.28;;;21.50;62.21
40570;BME280;26270;34.428;-119.710;2022-07-29T07:46:07;100890.96;;;21.40;62.08
40570;BME280;26270;34.428;-119.710;2022-07-29T07:48:35;100885.50;;;21.48;62.07
40570;BME280;26270;34.428;-119.710;2022-07-29T07:51:03;100879.81;;;21.42;62.00
40570;BME280;26270;34.428;-119.710;2022-07-29T07:53:31;100873.14;;;21.26;62.45
40570;BME280;26270;34.428;-119.710;2022-07-29T07:56:00;100872.64;;;21.39;62.40
40570;BME280;26270;34.428;-119.710;2022-07-29T07:58:28;100870.90;;;21.32;62.28
40570;BME280;26270;34.428;-119.710;2022-07-29T08:00:56;100874.45;;;21.39;61.91
40570;BME280;26270;34.428;-119.710;2022-07-29T08:03:24;100873.10;;;21.27;62.25
40570;BME280;26270;34.428;-119.710;2022-07-29T08:05:53;100869.53;;;21.26;62.17
40570;BME280;26270;34.428;-119.710;2022-07-29T08:08:21;100861.08;;;21.40;62.39
40570;BME280;26270;34.428;-119.710;2022-07-29T08:10:49;100854.30;;;21.15;62.99
40570;BME280;26270;34.428;-119.710;2022-07-29T08:13:18;100854.17;;;21.31;62.72
40570;BME280;26270;34.428;-119.710;2022-07-29T08:15:46;100859.98;;;21.33;62.66
40570;BME280;26270;34.428;-119.710;2022-07-29T08:18:15;100858.60;;;21.30;62.53
40570;BME280;26270;34.428;-119.710;2022-07-29T08:20:43;100855.34;;;21.40;62.39
40570;BME280;26270;34.428;-119.710;2022-07-29T08:23:11;100857.07;;;21.15;62.85
40570;BME280;26270;34.428;-119.710;2022-07-29T08:25:40;100863.43;;;21.30;62.64
40570;BME280;26270;34.428;-119.710;2022-07-29T08:28:08;100868.14;;;21.20;62.61
40570;BME280;26270;34.428;-119.710;2022-07-29T08:30:36;100861.88;;;21.17;62.86
40570;BME280;26270;34.428;-119.710;2022-07-29T08:33:04;100868.46;;;21.32;62.70
40570;BME280;26270;34.428;-119.710;2022-07-29T08:35:33;100874.19;;;21.22;63.09
40570;BME280;26270;34.428;-119.710;2022-07-29T08:38:01;100867.79;;;21.17;63.15
40570;BME280;26270;34.428;-119.710;2022-07-29T08:40:29;100860.61;;;21.06;63.45
40570;BME280;26270;34.428;-119.710;2022-07-29T08:42:58;100861.78;;;21.06;63.50
40570;BME280;26270;34.428;-119.710;2022-07-29T08:45:28;100861.01;;;21.25;63.24
40570;BME280;26270;34.428;-119.710;2022-07-29T08:47:57;100855.19;;;21.10;63.36
40570;BME280;26270;34.428;-119.710;2022-07-29T08:50:26;100848.90;;;21.20;63.16
40570;BME280;26270;34.428;-119.710;2022-07-29T08:52:55;100847.95;;;21.21;63.04
40570;BME280;26270;34.428;-119.710;2022-07-29T08:55:23;100842.51;;;21.39;63.12
40570;BME280;26270;34.428;-119.710;2022-07-29T08:57:51;100837.90;;;21.21;63.42
40570;BME280;26270;34.428;-119.710;2022-07-29T09:00:19;100829.34;;;21.16;63.02
40570;BME280;26270;34.428;-119.710;2022-07-29T09:02:55;100830.46;;;21.09;63.54
40570;BME280;26270;34.428;-119.710;2022-07-29T09:05:24;100829.93;;;21.18;63.71
40570;BME280;26270;34.428;-119.710;2022-07-29T09:07:53;100831.02;;;20.98;63.95
40570;BME280;26270;34.428;-119.710;2022-07-29T09:10:23;100830.55;;;20.98;64.06
40570;BME280;26270;34.428;-119.710;2022-07-29T09:12:51;100825.43;;;21.19;63.86
40570;BME280;26270;34.428;-119.710;2022-07-29T09:15:19;100832.05;;;21.03;64.46
40570;BME280;26270;34.428;-119.710;2022-07-29T09:17:49;100843.00;;;21.01;64.16
40570;BME280;26270;34.428;-119.710;2022-07-29T09:20:19;100845.53;;;21.18;63.94
40570;BME280;26270;34.428;-119.710;2022-07-29T09:22:48;100848.67;;;21.06;64.00
40570;BME280;26270;34.428;-119.710;2022-07-29T09:25:32;100852.94;;;21.17;64.01
40570;BME280;26270;34.428;-119.710;2022-07-29T09:28:07;100867.69;;;20.88;64.41
40570;BME280;26270;34.428;-119.710;2022-07-29T09:30:35;100867.12;;;21.02;64.38
40570;BME280;26270;34.428;-119.710;2022-07-29T09:33:04;100870.07;;;21.04;64.44
40570;BME280;26270;34.428;-119.710;2022-07-29T09:35:33;100872.19;;;20.97;64.54
40570;BME280;26270;34.428;-119.710;2022-07-29T09:38:11;100862.35;;;21.17;64.10
40570;BME280;26270;34.428;-119.710;2022-07-29T09:40:40;100867.76;;;21.05;64.58
40570;BME280;26270;34.428;-119.710;2022-07-29T09:43:12;100875.76;;;21.02;64.47
40570;BME280;26270;34.428;-119.710;2022-07-29T09:45:41;100875.27;;;21.14;64.58
40570;BME280;26270;34.428;-119.710;2022-07-29T09:48:18;100869.96;;;21.12;64.14
40570;BME280;26270;34.428;-119.710;2022-07-29T09:50:47;100865.82;;;21.04;64.34
40570;BME280;26270;34.428;-119.710;2022-07-29T09:53:31;100859.92;;;20.96;64.42
40570;BME280;26270;34.428;-119.710;2022-07-29T09:55:59;100858.56;;;20.91;64.65
40570;BME280;26270;34.428;-119.710;2022-07-29T09:58:28;100859.38;;;20.89;64.73
40570;BME280;26270;34.428;-119.710;2022-07-29T10:00:57;100858.47;;;20.93;64.87
40570;BME280;26270;34.428;-119.710;2022-07-29T10:03:24;100853.56;;;20.79;64.72
40570;BME280;26270;34.428;-119.710;2022-07-29T10:06:07;100851.56;;;20.88;64.51
40570;BME280;26270;34.428;-119.710;2022-07-29T10:08:36;100859.04;;;20.81;64.45
40570;BME280;26270;34.428;-119.710;2022-07-29T10:11:11;100859.37;;;20.88;64.32
40570;BME280;26270;34.428;-119.710;2022-07-29T10:13:41;100862.20;;;20.84;64.68
40570;BME280;26270;34.428;-119.710;2022-07-29T10:16:10;100866.53;;;20.85;64.70
40570;BME280;26270;34.428;-119.710;2022-07-29T10:18:39;100869.07;;;20.72;64.93
40570;BME280;26270;34.428;-119.710;2022-07-29T10:21:09;100866.81;;;20.65;65.08
40570;BME280;26270;34.428;-119.710;2022-07-29T10:23:37;100866.31;;;20.71;65.23
40570;BME280;26270;34.428;-119.710;2022-07-29T10:26:06;100869.90;;;20.83;64.79
40570;BME280;26270;34.428;-119.710;2022-07-29T10:28:35;100867.75;;;20.80;64.78
40570;BME280;26270;34.428;-119.710;2022-07-29T10:31:06;100870.33;;;20.83;65.10
40570;BME280;26270;34.428;-119.710;2022-07-29T10:33:51;100866.91;;;20.66;64.79
40570;BME280;26270;34.428;-119.710;2022-07-29T10:36:32;100871.05;;;20.31;66.28
40570;BME280;26270;34.428;-119.710;2022-07-29T10:39:11;100868.47;;;20.76;65.25
40570;BME280;26270;34.428;-119.710;2022-07-29T10:42:04;100868.35;;;20.58;65.33
40570;BME280;26270;34.428;-119.710;2022-07-29T10:44:35;100862.07;;;20.60;65.56
40570;BME280;26270;34.428;-119.710;2022-07-29T10:47:07;100856.86;;;20.46;65.88
40570;BME280;26270;34.428;-119.710;2022-07-29T10:49:35;100860.98;;;20.33;66.21
40570;BME280;26270;34.428;-119.710;2022-07-29T10:52:05;100865.84;;;20.51;65.41
40570;BME280;26270;34.428;-119.710;2022-07-29T10:54:40;100866.26;;;20.52;65.70
40570;BME280;26270;34.428;-119.710;2022-07-29T10:57:15;100866.33;;;20.48;65.06
40570;BME280;26270;34.428;-119.710;2022-07-29T10:59:44;100865.62;;;20.53;64.95
40570;BME280;26270;34.428;-119.710;2022-07-29T11:02:46;100864.75;;;20.52;64.72
40570;BME280;26270;34.428;-119.710;2022-07-29T11:05:16;100868.32;;;20.14;65.90
40570;BME280;26270;34.428;-119.710;2022-07-29T11:08:23;100874.73;;;20.48;65.47
40570;BME280;26270;34.428;-119.710;2022-07-29T11:11:30;100879.93;;;20.51;65.22
40570;BME280;26270;34.428;-119.710;2022-07-29T11:13:59;100880.58;;;20.55;64.86
40570;BME280;26270;34.428;-119.710;2022-07-29T11:16:59;100871.95;;;20.17;66.11
40570;BME280;26270;34.428;-119.710;2022-07-29T11:19:28;100867.67;;;19.88;67.16
40570;BME280;26270;34.428;-119.710;2022-07-29T11:21:56;100865.83;;;19.88;67.04
40570;BME280;26270;34.428;-119.710;2022-07-29T11:24:26;100867.26;;;20.19;66.06
40570;BME280;26270;34.428;-119.710;2022-07-29T11:27:13;100868.62;;;20.36;65.15
40570;BME280;26270;34.428;-119.710;2022-07-29T11:29:49;100861.82;;;20.50;64.92
40570;BME280;26270;34.428;-119.710;2022-07-29T11:32:18;100859.68;;;20.36;65.02
40570;BME280;26270;34.428;-119.710;2022-07-29T11:34:48;100869.43;;;20.36;65.38
40570;BME280;26270;34.428;-119.710;2022-07-29T11:37:19;100864.87;;;20.35;65.52
40570;BME280;26270;34.428;-119.710;2022-07-29T11:40:08;100855.30;;;20.38;65.33
40570;BME280;26270;34.428;-119.710;2022-07-29T11:42:41;100847.93;;;20.28;65.06
40570;BME280;26270;34.428;-119.710;2022-07-29T11:45:11;100846.09;;;20.41;65.09
40570;BME280;26270;34.428;-119.710;2022-07-29T11:47:41;100850.99;;;20.15;65.53
40570;BME280;26270;34.428;-119.710;2022-07-29T11:50:11;100856.21;;;20.18;66.02
40570;BME280;26270;34.428;-119.710;2022-07-29T11:52:40;100855.28;;;20.32;65.33
40570;BME280;26270;34.428;-119.710;2022-07-29T11:55:11;100859.34;;;20.15;65.68
40570;BME280;26270;34.428;-119.710;2022-07-29T11:57:46;100862.04;;;20.28;64.74
40570;BME280;26270;34.428;-119.710;2022-07-29T12:00:24;100866.65;;;20.34;65.16
40570;BME280;26270;34.428;-119.710;2022-07-29T12:02:53;100868.86;;;20.19;64.84
40570;BME280;26270;34.428;-119.710;2022-07-29T12:05:24;100867.22;;;20.42;64.47
40570;BME280;26270;34.428;-119.710;2022-07-29T12:08:06;100864.86;;;20.32;64.82
40570;BME280;26270;34.428;-119.710;2022-07-29T12:10:34;100855.70;;;20.27;65.30
40570;BME280;26270;34.428;-119.710;2022-07-29T12:13:03;100859.02;;;20.16;64.81
40570;BME280;26270;34.428;-119.710;2022-07-29T12:15:31;100865.25;;;20.27;65.27
40570;BME280;26270;34.428;-119.710;2022-07-29T12:18:08;100873.12;;;20.04;65.71
40570;BME280;26270;34.428;-119.710;2022-07-29T12:20:36;100875.62;;;19.98;66.05
40570;BME280;26270;34.428;-119.710;2022-07-29T12:23:06;100879.86;;;20.08;65.43
40570;BME280;26270;34.428;-119.710;2022-07-29T12:25:35;100882.23;;;20.13;65.91
40570;BME280;26270;34.428;-119.710;2022-07-29T12:28:07;100879.41;;;20.15;65.28
40570;BME280;26270;34.428;-119.710;2022-07-29T12:30:38;100880.04;;;20.00;65.99
40570;BME280;26270;34.428;-119.710;2022-07-29T12:33:18;100878.48;;;20.14;65.63
40570;BME280;26270;34.428;-119.710;2022-07-29T12:35:49;100876.53;;;20.08;65.78
40570;BME280;26270;34.428;-119.710;2022-07-29T12:38:19;100875.16;;;20.19;65.69